Fv\men Brial — FVDB — position and weather

sailwx.info

Track history (hours):
 
Tides and Currents Weather Stations Pressure Air Temp Water Temp Dewpoint Dewpoint Depression Visibility Wind Speed Wind Dir Waves Ship Positions

Fv\men Brial

Last reported at 2017-Dec-20 23:52 UTC. Time now 2018-Jan-24 00:02 UTC.
Position N 47°13' W 005°16'.
Warning: this ship's position is 34 days out of date.

Length 15 m.

Type: Fishing. MMSI: 228251000.

Date/timePositionNaut miles runAvg speedWind from/ knotsBaromVisibWave heightAir tempDewpointWater temp
2017-Dec-20 23:52N 47°13' W 005°16'4 7.0
2017-Dec-20 23:19N 47°11' W 005°21'3 5.5
2017-Dec-20 22:48N 47°09' W 005°23'8 0.8
2017-Dec-20 12:09N 47°04' W 005°33'2 1.3
2017-Dec-20 10:18N 47°05' W 005°30'1 3.1
2017-Dec-20 09:58N 47°04' W 005°28'1 2.2
2017-Dec-20 09:30N 47°04' W 005°30'2 2.3
2017-Dec-20 08:44N 47°04' W 005°32'1 2.2
2017-Dec-20 08:09N 47°03' W 005°34'1 3.6
2017-Dec-20 07:46N 47°04' W 005°32'0 1.3
2017-Dec-20 07:31N 47°04' W 005°32'2 2.9
2017-Dec-20 06:59N 47°04' W 005°29'1 2.8
2017-Dec-20 06:30N 47°04' W 005°27'1 2.8
2017-Dec-20 05:59N 47°04' W 005°25'1 2.9
2017-Dec-20 05:29N 47°05' W 005°24'2 2.9
2017-Dec-20 04:58N 47°07' W 005°23'1 3.0
2017-Dec-20 04:30N 47°08' W 005°24'1 3.0
2017-Dec-20 04:00N 47°09' W 005°25'1 2.6
2017-Dec-20 03:30N 47°10' W 005°25'1 2.9
2017-Dec-20 03:00N 47°11' W 005°24'1 1.2
2017-Dec-20 02:30N 47°11' W 005°24'1 2.8
2017-Dec-20 01:58N 47°10' W 005°24'1 2.8
2017-Dec-20 01:30N 47°09' W 005°23'2 3.0
2017-Dec-20 01:00N 47°07' W 005°22'7 0.8
2017-Dec-19 16:54N 47°04' W 005°31'11 0.7
2017-Dec-19 01:24N 47°07' W 005°15'2 3.0
2017-Dec-19 00:52N 47°06' W 005°17'1 3.0
2017-Dec-19 00:30N 47°06' W 005°19'8 1.1
2017-Dec-18 17:20N 47°04' W 005°30'1 3.7
2017-Dec-18 17:00N 47°03' W 005°32'0 0.3
2017-Dec-18 16:30N 47°04' W 005°32'1 2.6
2017-Dec-18 16:00N 47°04' W 005°30'1 2.5
2017-Dec-18 15:26N 47°04' W 005°28'1 1.9
2017-Dec-18 14:58N 47°04' W 005°26'4 2.7
2017-Dec-18 13:37N 47°04' W 005°32'1 2.9
2017-Dec-18 13:21N 47°03' W 005°33'1 2.8
2017-Dec-18 12:56N 47°03' W 005°34'1 3.1
2017-Dec-18 12:30N 47°02' W 005°36'1 2.0
2017-Dec-18 11:57N 47°01' W 005°37'1 2.5
2017-Dec-18 11:27N 47°02' W 005°36'2 2.5
2017-Dec-18 10:51N 47°03' W 005°34'1 2.6
2017-Dec-18 10:20N 47°04' W 005°32'1 2.8
2017-Dec-18 09:56N 47°04' W 005°31'2 0.1
2017-Dec-17 18:02N 47°05' W 005°30'0 2.3
2017-Dec-17 17:53N 47°05' W 005°30'58 1.7
2017-Dec-16 08:06N 47°43' W 004°26'1 8.6
2017-Dec-16 07:57N 47°44' W 004°24'4 8.8
2017-Dec-16 07:30N 47°46' W 004°19'  
Track history (hours):
 
Tides and Currents Weather Stations Pressure Air Temp Water Temp Dewpoint Dewpoint Depression Visibility Wind Speed Wind Dir Waves Ship Positions

Fv\men Brial

Last reported at 2017-Dec-20 23:52 UTC. Time now 2018-Jan-24 00:02 UTC.
Position N 47°13' W 005°16'.
Warning: this ship's position is 34 days out of date.

Length 15 m.

Type: Fishing. MMSI: 228251000.

Date/timePositionNaut miles runAvg speedWind from/ knotsBaromVisibWave heightAir tempDewpointWater temp
2017-Dec-20 23:52N 47°13' W 005°16'4 7.0
2017-Dec-20 23:19N 47°11' W 005°21'3 5.5
2017-Dec-20 22:48N 47°09' W 005°23'8 0.8
2017-Dec-20 12:09N 47°04' W 005°33'2 1.3
2017-Dec-20 10:18N 47°05' W 005°30'1 3.1
2017-Dec-20 09:58N 47°04' W 005°28'1 2.2
2017-Dec-20 09:30N 47°04' W 005°30'2 2.3
2017-Dec-20 08:44N 47°04' W 005°32'1 2.2
2017-Dec-20 08:09N 47°03' W 005°34'1 3.6
2017-Dec-20 07:46N 47°04' W 005°32'0 1.3
2017-Dec-20 07:31N 47°04' W 005°32'2 2.9
2017-Dec-20 06:59N 47°04' W 005°29'1 2.8
2017-Dec-20 06:30N 47°04' W 005°27'1 2.8
2017-Dec-20 05:59N 47°04' W 005°25'1 2.9
2017-Dec-20 05:29N 47°05' W 005°24'2 2.9
2017-Dec-20 04:58N 47°07' W 005°23'1 3.0
2017-Dec-20 04:30N 47°08' W 005°24'1 3.0
2017-Dec-20 04:00N 47°09' W 005°25'1 2.6
2017-Dec-20 03:30N 47°10' W 005°25'1 2.9
2017-Dec-20 03:00N 47°11' W 005°24'1 1.2
2017-Dec-20 02:30N 47°11' W 005°24'1 2.8
2017-Dec-20 01:58N 47°10' W 005°24'1 2.8
2017-Dec-20 01:30N 47°09' W 005°23'2 3.0
2017-Dec-20 01:00N 47°07' W 005°22'7 0.8
2017-Dec-19 16:54N 47°04' W 005°31'11 0.7
2017-Dec-19 01:24N 47°07' W 005°15'2 3.0
2017-Dec-19 00:52N 47°06' W 005°17'1 3.0
2017-Dec-19 00:30N 47°06' W 005°19'8 1.1
2017-Dec-18 17:20N 47°04' W 005°30'1 3.7
2017-Dec-18 17:00N 47°03' W 005°32'0 0.3
2017-Dec-18 16:30N 47°04' W 005°32'1 2.6
2017-Dec-18 16:00N 47°04' W 005°30'1 2.5
2017-Dec-18 15:26N 47°04' W 005°28'1 1.9
2017-Dec-18 14:58N 47°04' W 005°26'4 2.7
2017-Dec-18 13:37N 47°04' W 005°32'1 2.9
2017-Dec-18 13:21N 47°03' W 005°33'1 2.8
2017-Dec-18 12:56N 47°03' W 005°34'1 3.1
2017-Dec-18 12:30N 47°02' W 005°36'1 2.0
2017-Dec-18 11:57N 47°01' W 005°37'1 2.5
2017-Dec-18 11:27N 47°02' W 005°36'2 2.5
2017-Dec-18 10:51N 47°03' W 005°34'1 2.6
2017-Dec-18 10:20N 47°04' W 005°32'1 2.8
2017-Dec-18 09:56N 47°04' W 005°31'2 0.1
2017-Dec-17 18:02N 47°05' W 005°30'0 2.3
2017-Dec-17 17:53N 47°05' W 005°30'58 1.7
2017-Dec-16 08:06N 47°43' W 004°26'1 8.6
2017-Dec-16 07:57N 47°44' W 004°24'4 8.8
2017-Dec-16 07:30N 47°46' W 004°19'  

Dump ship's entire track history